Seagrove, North Carolina
Current Conditions -  °F | °C
As of 9:35 AM on Friday 28 Nov 2014 (Local Time) from KHBI Reporting Station
Clear Clear  
Wind Chill: 26°   Ceiling: Unl
Heat Index: 34°   Visibility: 10mi
Dew Point: 19°   Wind: 10mph
Humidity: 54%   Direction: 340°NNW
Pressure: 30.42"   Gusts: NA
Location:  35.54°N, 79.77°W
Report Text: KHBI 281435Z AUTO 34009KT 10SM CLR 01/M07 A3042 RMK AO2 T00111072
Loading
Personal Weather Stations






























Interactive Weather Map New forecast layout! Learn more

10-Day Weather Forecast

Advertisements
Track Severe Weather on mobile